Saltford, United Kingdom
Current Conditions -  °F | °C
As of 2:20 AM on Saturday 29 Nov 2014 (Local Time) from EGGD Reporting Station
Haze Haze  
Wind Chill: 43°   Ceiling: Unl
Heat Index: 48°   Visibility: 1.8mi
Dew Point: 46°   Wind: 14mph
Humidity: 93%   Direction: 60°ENE
Pressure: 29.68"   Gusts: NA
Location:  51.4°N, 2.46°W
Report Text: EGGD 290220Z 06012KT 3000 BR FEW003 09/08 Q1005
Loading
Personal Weather Stations






























Interactive Weather Map New forecast layout! Learn more

10-Day Weather Forecast

Advertisements
Track Severe Weather on mobile